Rakitna Rakitna

Učna pot


Verjetnost toče več informacij Hail probability


Moja kamera več informacij My webcam


Cestna kamera več informacij Road camera


ARSO, spremljajte nas več informacij


Obiščite še:

Template documentacija
in prenos

in še drugo stran



Posebna pozornost v zvezi z vremenskimi dogajanji ni potrebna.    Posebna pozornost v zvezi z vremenskimi dogajanji ni potrebna.

METAR v bližini

   
LJLJ - Ljubljana
Posodobljeno: 15-10-2019 21:00
delno oblačno  
delno oblačno  
   Veter: SSZ 5.6 km/h
Veter: SSZ 5.6 km/h
Temperatura: 13°C
Točka rosišča: 12°C
Vlažnost: 94%
Zračni tlak: 1014 hPa
Oblaki: delno oblačno
Vidljivost: več kot 10 km
Podrobnosti o oblakih: nekaj oblakov 3000 ft,
delno oblačno 4000 ft
LJLJ 151900Z 33003KT 300V360 9999 FEW030 SCT040 13/12 Q1014 NOSIG
LJCE - Cerklje ob Krki
Posodobljeno: 15-10-2019 21:00
jasno  
jasno  
   Veter: ZJZ 7.4 km/h
Veter: ZJZ 7.4 km/h
Temperatura: 14°C
Točka rosišča: 12°C
Vlažnost: 88%
Zračni tlak: 1014 hPa
Vidljivost: več kot 10 km
Podrobnosti o oblakih: jasno
LJCE 151900Z 24004KT 200V270 CAVOK 14/12 Q1014 RMK BLU
LJMB - Maribor
Posodobljeno: 15-10-2019 21:00
nekaj oblakov  
nekaj oblakov  
   Veter: Jug 13 km/h
Veter: Jug 13 km/h
Temperatura: 15°C
Točka rosišča: 13°C
Vlažnost: 88%
Zračni tlak: 1013 hPa
Oblaki: nekaj oblakov
Vidljivost: več kot 10 km
Podrobnosti o oblakih: nekaj oblakov 4000 ft
LJMB 151900Z 18007KT 9999 FEW040 15/13 Q1013
LJPZ - Portorož
Posodobljeno: 15-10-2019 21:00
jasno  
jasno  
   Veter: JV 16.7 km/h
Veter: JV 16.7 km/h
Temperatura: 19°C
Točka rosišča: 15°C
Vlažnost: 78%
Zračni tlak: 1012 hPa
Vidljivost: več kot 10 km
Podrobnosti o oblakih: jasno
LJPZ 151900Z 14009KT 110V170 CAVOK 19/15 Q1012
LDRI - Rijeka, Airport, Croatia
Posodobljeno: 15-10-2019 21:00
pretežno oblačno  
pretežno oblačno  
   Veter: JJV 5.6 km/h
Veter: JJV 5.6 km/h
Temperatura: 18°C
Točka rosišča: 16°C
Vlažnost: 88%
Zračni tlak: 1015 hPa
Oblaki: pretežno oblačno
Vidljivost: več kot 10 km
Podrobnosti o oblakih: delno oblačno 3000 ft,
pretežno oblačno 5000 ft
LDRI 151900Z 16003KT 110V240 9999 SCT030 BKN050 18/16 Q1015
LOWK - Klagenfurt, Airport, Avstia
Posodobljeno: 15-10-2019 21:20
delno oblačno  
delno oblačno  
   Veter: različen 1.9 km/h
Veter: različen 1.9 km/h
Temperatura: 14°C
Točka rosišča: 11°C
Vlažnost: 82%
Zračni tlak: 1013 hPa
Oblaki: delno oblačno
Vidljivost: več kot 10 km
Podrobnosti o oblakih: nekaj oblakov 4500 ft,
delno oblačno 6000 ft
LOWK 151920Z VRB01KT 9999 FEW045 SCT060 14/11 Q1013 NOSIG

Script developed by  Saratoga-weather.org Adapted for the template by  Weerstation Leuven

Vremenski podatki so objavljeni na:

Weather Underground

Slovenska vremenska mreža

WeatherlinkIP

MapView

Geostik

Oprema, ki se uporablja:

Vremenska postaja
Davis VP2+ ventilirana

Vremenski program
WeatherLink

Vremenski server
Shuttle XS35V4

Ponudnik
Vremensko društvo ZEVS

Davis VP2+ ventilirana

WeatherLink

Shuttle XS35V4

Vremensko društvo ZEVS

Meteorološki podatki vremenske postaje Rakitna so neuradni, meteorološka postaja sama pa ni del državne mreže Agencije Republike Slovenije za okolje (ARSO),
je pa vključena v Vremensko društvo ZEVS. Prikazani podatki so izmerjeni točno, vendar so zgolj informativni in nimajo značaja uradnega podatka.

Podatke meri vremenska postaja "Davis VP2+ ventilirana" od 05.03.2011 dalje.

Opozarjamo, da ne prevzamemo odgovornosti za morebitno nastalo škodo, ki bi nastala zaradi odločitve, sprejete na osnovi teh podatkov!